createdAt,value
2022-08-07T00:00:14.732Z,84.93
2022-08-07T00:02:45.185Z,85.16
2022-08-07T00:05:12.096Z,84.67
2022-08-07T00:07:40.773Z,84.85
2022-08-07T00:10:26.558Z,85.10
2022-08-07T00:12:59.734Z,84.63
2022-08-07T00:15:37.844Z,84.99
2022-08-07T00:18:19.502Z,84.56
2022-08-07T00:20:49.312Z,85.23
2022-08-07T00:23:17.065Z,85.06
2022-08-07T00:25:45.847Z,84.90
2022-08-07T00:28:18.649Z,84.79
2022-08-07T00:30:48.781Z,84.97
2022-08-07T00:33:15.610Z,84.96
2022-08-07T00:35:46.504Z,84.56
2022-08-07T00:38:16.057Z,84.88
2022-08-07T00:40:58.520Z,85.02
2022-08-07T00:44:01.274Z,84.90
2022-08-07T00:46:11.601Z,85.02
2022-08-07T00:48:42.422Z,84.95
2022-08-07T00:51:10.193Z,84.94
2022-08-07T00:53:38.857Z,84.90
2022-08-07T00:56:18.060Z,84.46
2022-08-07T00:58:47.124Z,85.24
2022-08-07T01:01:17.872Z,85.07
2022-08-07T01:03:56.827Z,84.82
2022-08-07T01:06:27.827Z,85.11
2022-08-07T01:08:55.690Z,84.84
2022-08-07T01:12:27.804Z,85.12
2022-08-07T01:14:10.106Z,85.01
2022-08-07T01:16:37.718Z,84.86
2022-08-07T01:19:10.844Z,84.95
2022-08-07T01:21:46.654Z,85.06
2022-08-07T01:24:14.354Z,85.07
2022-08-07T01:26:47.876Z,85.27
2022-08-07T01:29:19.746Z,85.13
2022-08-07T01:31:48.615Z,85.09
2022-08-07T01:34:18.785Z,85.34
2022-08-07T01:36:52.774Z,85.12
2022-08-07T01:39:41.293Z,85.17
2022-08-07T01:42:37.935Z,85.28
2022-08-07T01:45:05.376Z,85.25
2022-08-07T01:48:29.207Z,85.55
2022-08-07T01:50:30.499Z,85.60
2022-08-07T01:53:00.723Z,85.90
2022-08-07T01:55:29.881Z,85.88
2022-08-07T01:58:06.667Z,86.00
2022-08-07T02:01:10.130Z,85.84
2022-08-07T02:03:51.056Z,85.75
2022-08-07T02:06:31.441Z,86.19
2022-08-07T02:09:04.237Z,86.12
2022-08-07T02:12:03.528Z,86.18
2022-08-07T02:14:40.167Z,86.59
2022-08-07T02:17:11.015Z,86.67
2022-08-07T02:20:07.570Z,86.90
2022-08-07T02:22:30.568Z,87.28
2022-08-07T02:24:58.167Z,87.42
2022-08-07T02:27:34.266Z,87.30
2022-08-07T02:30:03.647Z,87.40
2022-08-07T02:32:36.189Z,87.51
2022-08-07T02:35:09.177Z,87.57
2022-08-07T02:37:44.071Z,87.79
2022-08-07T02:40:35.165Z,88.01
2022-08-07T02:43:00.205Z,88.14
2022-08-07T02:45:59.408Z,88.28
2022-08-07T02:48:15.958Z,88.71
2022-08-07T02:50:47.558Z,88.75
2022-08-07T02:53:27.318Z,88.71
2022-08-07T02:56:02.361Z,88.69
2022-08-07T02:58:33.787Z,88.49
2022-08-07T03:01:03.230Z,88.72
2022-08-07T03:03:50.004Z,88.83
2022-08-07T03:06:25.994Z,88.47
2022-08-07T03:09:01.960Z,88.12
2022-08-07T03:11:32.636Z,87.91
2022-08-07T03:14:02.069Z,88.11
2022-08-07T03:16:30.957Z,87.91
2022-08-07T03:18:58.606Z,87.97
2022-08-07T03:21:25.769Z,88.08
2022-08-07T03:24:18.462Z,87.89
2022-08-07T03:26:58.079Z,87.97
2022-08-07T03:29:29.708Z,87.84
2022-08-07T03:31:57.403Z,88.14
2022-08-07T03:34:27.559Z,88.04
2022-08-07T03:36:57.283Z,87.97
2022-08-07T03:39:46.276Z,87.95
2022-08-07T03:42:14.307Z,87.74
2022-08-07T03:44:41.614Z,87.65
2022-08-07T03:47:14.104Z,87.78
2022-08-07T03:49:52.166Z,88.07
2022-08-07T03:52:26.592Z,87.88
2022-08-07T03:54:57.265Z,87.68
2022-08-07T03:58:34.914Z,87.63
2022-08-07T04:00:21.031Z,87.79
2022-08-07T04:02:56.633Z,88.17
2022-08-07T04:05:24.028Z,88.24
2022-08-07T04:08:06.937Z,88.42
2022-08-07T04:10:38.731Z,87.85
2022-08-07T04:13:07.806Z,87.45
2022-08-07T04:15:42.994Z,87.55
2022-08-07T04:18:56.560Z,87.46
2022-08-07T04:20:59.216Z,87.53
2022-08-07T04:23:43.514Z,87.41
2022-08-07T04:26:16.857Z,87.45
2022-08-07T04:28:48.372Z,87.45
2022-08-07T04:31:20.296Z,87.37
2022-08-07T04:34:02.950Z,87.43
2022-08-07T04:36:29.557Z,87.77
2022-08-07T04:38:56.518Z,87.55
2022-08-07T04:41:24.923Z,87.39
2022-08-07T04:44:12.498Z,87.64
2022-08-07T04:47:07.953Z,87.26
2022-08-07T04:50:03.527Z,87.26
2022-08-07T04:53:03.802Z,87.37
2022-08-07T04:58:10.696Z,87.54
2022-08-07T05:01:39.049Z,86.97
2022-08-07T05:04:18.611Z,86.75
2022-08-07T05:06:56.787Z,86.68
2022-08-07T05:09:45.489Z,86.73
2022-08-07T05:12:26.573Z,86.27
2022-08-07T05:15:04.573Z,86.43
2022-08-07T05:17:52.968Z,86.39
2022-08-07T05:20:25.765Z,86.19
2022-08-07T05:22:57.870Z,86.52
2022-08-07T05:25:54.461Z,86.40
2022-08-07T05:28:20.339Z,86.21
2022-08-07T05:30:52.127Z,85.80
2022-08-07T05:33:20.751Z,85.04
2022-08-07T05:35:50.684Z,85.28
2022-08-07T05:38:58.217Z,85.68
2022-08-07T05:41:12.253Z,86.49
2022-08-07T05:44:07.945Z,85.79
2022-08-07T05:46:34.860Z,85.53
2022-08-07T05:49:11.746Z,85.52
2022-08-07T05:51:40.035Z,85.16
2022-08-07T05:54:29.295Z,84.93
2022-08-07T05:56:56.961Z,85.10
2022-08-07T05:59:25.721Z,84.18
2022-08-07T06:01:57.171Z,84.15
2022-08-07T06:04:26.346Z,84.29
2022-08-07T06:07:03.862Z,84.37
2022-08-07T06:10:03.875Z,84.47
2022-08-07T06:12:27.768Z,83.41
2022-08-07T06:15:05.094Z,83.98
2022-08-07T06:17:32.745Z,83.69
2022-08-07T06:20:05.688Z,83.39
2022-08-07T06:22:38.812Z,83.02
2022-08-07T06:25:10.173Z,83.34
2022-08-07T06:28:00.623Z,83.80
2022-08-07T06:30:24.287Z,83.34
2022-08-07T06:33:02.360Z,82.82
2022-08-07T06:35:39.204Z,81.88
2022-08-07T06:38:20.670Z,80.63
2022-08-07T06:40:51.229Z,80.78
2022-08-07T06:43:22.174Z,81.40
2022-08-07T06:45:49.286Z,80.27
2022-08-07T06:48:16.224Z,80.26
2022-08-07T06:50:52.939Z,80.25
2022-08-07T06:55:29.493Z,80.44
2022-08-07T06:56:14.817Z,80.91
2022-08-07T07:00:14.774Z,80.57
2022-08-07T07:01:44.115Z,78.95
2022-08-07T07:04:33.056Z,79.47
2022-08-07T07:07:10.489Z,79.11
2022-08-07T07:09:50.869Z,78.99
2022-08-07T07:12:48.659Z,77.28
2022-08-07T07:15:32.736Z,78.00
2022-08-07T07:18:33.091Z,77.51
2022-08-07T07:21:19.895Z,75.98
2022-08-07T07:24:10.987Z,76.81
2022-08-07T07:26:37.815Z,75.31
2022-08-07T07:29:56.912Z,74.67
2022-08-07T07:31:57.904Z,74.86
2022-08-07T07:34:31.083Z,74.25
2022-08-07T07:37:14.765Z,75.04
2022-08-07T07:39:55.373Z,74.63
2022-08-07T07:42:33.093Z,73.97
2022-08-07T07:45:05.919Z,72.83
2022-08-07T07:47:42.708Z,72.62
2022-08-07T07:50:33.223Z,73.37
2022-08-07T07:53:05.956Z,72.67
2022-08-07T07:55:54.661Z,73.11
2022-08-07T07:58:29.386Z,71.61
2022-08-07T08:00:58.516Z,70.57
2022-08-07T08:04:06.090Z,71.80
2022-08-07T08:06:17.649Z,71.66
2022-08-07T08:08:45.098Z,72.02
2022-08-07T08:11:17.835Z,72.27
2022-08-07T08:14:02.817Z,72.79
2022-08-07T08:16:35.436Z,71.88
2022-08-07T08:19:17.804Z,69.54
2022-08-07T08:22:10.619Z,70.39
2022-08-07T08:25:18.674Z,68.32
2022-08-07T08:27:57.322Z,69.16
2022-08-07T08:30:29.657Z,69.97
2022-08-07T08:33:01.917Z,69.36
2022-08-07T08:35:42.949Z,69.30
2022-08-07T08:38:17.192Z,66.93
2022-08-07T08:40:54.305Z,67.20
2022-08-07T08:43:58.619Z,67.00
2022-08-07T08:46:49.180Z,67.87
2022-08-07T08:50:02.406Z,67.24
2022-08-07T08:52:36.186Z,66.68
2022-08-07T08:55:21.345Z,65.22
2022-08-07T08:58:08.831Z,63.99
2022-08-07T09:00:51.798Z,63.98
2022-08-07T09:03:47.444Z,62.75
2022-08-07T09:06:37.628Z,64.16
2022-08-07T09:09:48.224Z,63.49
2022-08-07T09:12:59.591Z,62.86
2022-08-07T09:16:21.670Z,63.30
2022-08-07T09:19:03.603Z,62.38
2022-08-07T09:22:09.635Z,63.51
2022-08-07T09:25:00.580Z,64.05
2022-08-07T09:28:00.240Z,62.04
2022-08-07T09:30:41.887Z,62.64
2022-08-07T09:33:56.624Z,61.81
2022-08-07T09:36:42.741Z,63.33
2022-08-07T09:39:55.454Z,62.42
2022-08-07T09:42:24.973Z,61.10
2022-08-07T09:47:23.619Z,59.64
2022-08-07T09:50:02.026Z,59.97
2022-08-07T09:52:09.661Z,60.75
2022-08-07T09:54:44.396Z,60.65
2022-08-07T09:57:26.590Z,60.14
2022-08-07T10:00:09.172Z,60.67
2022-08-07T10:03:08.226Z,60.62
2022-08-07T10:06:12.268Z,60.42
2022-08-07T10:09:15.218Z,59.07
2022-08-07T10:12:15.184Z,59.89
2022-08-07T10:15:04.237Z,60.43
2022-08-07T10:18:01.087Z,59.92
2022-08-07T10:20:35.375Z,57.38
2022-08-07T10:23:17.130Z,57.19
2022-08-07T10:26:25.437Z,58.51
2022-08-07T10:29:26.008Z,58.43
2022-08-07T10:32:50.926Z,57.45
2022-08-07T10:35:55.613Z,58.02
2022-08-07T10:38:48.403Z,59.41
2022-08-07T10:41:47.507Z,59.79
2022-08-07T10:44:09.767Z,58.71
2022-08-07T10:46:48.830Z,58.78
2022-08-07T10:49:49.585Z,59.76
2022-08-07T10:52:19.213Z,59.42
2022-08-07T10:55:01.898Z,59.30
2022-08-07T10:58:09.009Z,60.05
2022-08-07T11:01:11.769Z,58.11
2022-08-07T11:03:55.245Z,58.84
2022-08-07T11:06:47.888Z,58.06
2022-08-07T11:10:07.340Z,58.85
2022-08-07T11:12:18.945Z,58.90
2022-08-07T11:15:26.338Z,57.20
2022-08-07T11:18:13.791Z,58.56
2022-08-07T11:21:04.287Z,57.93
2022-08-07T11:23:48.304Z,59.05
2022-08-07T11:26:33.652Z,58.88
2022-08-07T11:29:42.093Z,58.71
2022-08-07T11:32:26.139Z,59.51
2022-08-07T11:34:59.769Z,59.82
2022-08-07T11:37:58.136Z,60.30
2022-08-07T11:40:56.109Z,59.03
2022-08-07T11:43:54.173Z,56.99
2022-08-07T11:46:48.608Z,56.72
2022-08-07T11:50:11.235Z,58.82
2022-08-07T11:52:38.056Z,59.00
2022-08-07T11:56:08.699Z,59.09
2022-08-07T11:58:16.122Z,57.96
2022-08-07T12:01:05.282Z,57.64
2022-08-07T12:03:54.549Z,58.13
2022-08-07T12:06:55.412Z,58.28
2022-08-07T12:09:46.230Z,57.66
2022-08-07T12:12:17.969Z,57.11
2022-08-07T12:15:01.436Z,56.21
2022-08-07T12:17:58.728Z,54.90
2022-08-07T12:20:46.342Z,55.37
2022-08-07T12:24:06.984Z,56.42
2022-08-07T12:26:44.836Z,55.16
2022-08-07T12:29:38.155Z,55.63
2022-08-07T12:32:21.921Z,54.82
2022-08-07T12:34:55.758Z,55.00
2022-08-07T12:37:28.474Z,54.92
2022-08-07T12:40:36.381Z,54.53
2022-08-07T12:43:03.682Z,54.92
2022-08-07T12:45:59.052Z,54.46
2022-08-07T12:48:52.151Z,54.97
2022-08-07T12:51:46.685Z,55.32
2022-08-07T12:54:54.316Z,55.52
2022-08-07T12:57:29.975Z,55.25
2022-08-07T13:00:20.959Z,54.56
2022-08-07T13:03:27.563Z,56.00
2022-08-07T13:07:00.105Z,55.74
2022-08-07T13:10:19.471Z,56.80
2022-08-07T13:13:47.254Z,56.27
2022-08-07T13:16:25.669Z,56.71
2022-08-07T13:19:45.652Z,57.55
2022-08-07T13:22:28.338Z,55.84
2022-08-07T13:25:02.473Z,56.54
2022-08-07T13:28:10.742Z,56.33
2022-08-07T13:30:40.401Z,55.30
2022-08-07T13:34:31.913Z,55.13
2022-08-07T13:36:22.151Z,54.90
2022-08-07T13:39:02.756Z,55.17
2022-08-07T13:41:47.612Z,55.55
2022-08-07T13:44:25.996Z,55.74
2022-08-07T13:46:58.857Z,55.51
2022-08-07T13:50:34.442Z,54.76
2022-08-07T13:52:32.194Z,54.94
2022-08-07T13:55:13.202Z,55.19
2022-08-07T13:58:28.139Z,55.65
2022-08-07T14:01:10.824Z,55.30
2022-08-07T14:04:06.791Z,54.87
2022-08-07T14:06:35.974Z,55.59
2022-08-07T14:09:06.001Z,54.24
2022-08-07T14:12:00.369Z,54.17
2022-08-07T14:14:39.982Z,54.65
2022-08-07T14:17:32.251Z,55.61
2022-08-07T14:20:42.188Z,55.32
2022-08-07T14:22:59.112Z,54.05
2022-08-07T14:25:39.700Z,54.79
2022-08-07T14:28:15.696Z,54.53
2022-08-07T14:30:52.093Z,55.47
2022-08-07T14:33:22.286Z,54.20
2022-08-07T14:38:50.499Z,54.40
2022-08-07T14:41:33.879Z,53.42
2022-08-07T14:44:16.389Z,54.20
2022-08-07T14:46:56.473Z,54.25
2022-08-07T14:49:58.227Z,53.58
2022-08-07T14:55:17.674Z,53.28
2022-08-07T14:57:55.139Z,52.88
2022-08-07T15:00:32.058Z,53.67
2022-08-07T15:03:18.659Z,54.13
2022-08-07T15:05:54.180Z,53.21
2022-08-07T15:08:32.868Z,52.97
2022-08-07T15:11:10.868Z,53.80
2022-08-07T15:13:53.387Z,55.33
2022-08-07T15:19:18.439Z,53.71
2022-08-07T15:22:04.190Z,54.27
2022-08-07T15:25:15.570Z,54.25
2022-08-07T15:27:23.752Z,54.25
2022-08-07T15:30:06.690Z,53.64
2022-08-07T15:42:42.097Z,52.47
2022-08-07T15:44:09.278Z,51.87
2022-08-07T15:50:05.634Z,52.30
2022-08-07T15:52:30.473Z,52.59
2022-08-07T15:55:02.598Z,52.38
2022-08-07T15:57:47.961Z,52.45
2022-08-07T16:00:32.214Z,52.31
2022-08-07T16:03:21.532Z,53.09
2022-08-07T16:06:01.532Z,52.79
2022-08-07T16:08:38.360Z,53.05
2022-08-07T16:11:17.397Z,52.75
2022-08-07T16:14:05.752Z,52.36
2022-08-07T16:16:49.396Z,51.67
2022-08-07T16:19:19.077Z,52.35
2022-08-07T16:22:55.673Z,52.51
2022-08-07T16:25:56.088Z,52.79
2022-08-07T16:29:18.586Z,52.49
2022-08-07T16:31:51.275Z,53.01
2022-08-07T16:34:48.739Z,52.80
2022-08-07T16:38:06.696Z,53.03
2022-08-07T16:40:23.377Z,53.09
2022-08-07T16:43:13.641Z,53.35
2022-08-07T16:46:21.012Z,54.36
2022-08-07T16:49:03.934Z,54.30
2022-08-07T16:52:41.630Z,54.20
2022-08-07T16:54:55.485Z,53.47
2022-08-07T16:58:02.391Z,53.03
2022-08-07T17:00:41.841Z,53.50
2022-08-07T17:03:11.372Z,52.50
2022-08-07T17:06:29.130Z,52.79
2022-08-07T17:09:10.458Z,52.70
2022-08-07T17:12:01.385Z,52.50
2022-08-07T17:14:43.886Z,52.76
2022-08-07T17:17:47.847Z,52.49
2022-08-07T17:20:41.817Z,53.12
2022-08-07T17:23:46.103Z,54.01
2022-08-07T17:26:30.750Z,52.45
2022-08-07T17:30:12.598Z,52.94
2022-08-07T17:32:30.687Z,53.32
2022-08-07T17:35:51.557Z,53.99
2022-08-07T17:38:08.391Z,54.72
2022-08-07T17:42:01.042Z,54.34
2022-08-07T17:44:02.286Z,54.31
2022-08-07T17:46:52.269Z,54.00
2022-08-07T17:49:44.575Z,55.60
2022-08-07T17:52:31.085Z,55.99
2022-08-07T17:55:14.032Z,56.96
2022-08-07T17:57:58.998Z,57.19
2022-08-07T18:00:34.595Z,57.33
2022-08-07T18:04:03.980Z,57.79
2022-08-07T18:06:36.728Z,58.72
2022-08-07T18:09:06.314Z,59.42
2022-08-07T18:12:17.329Z,59.29
2022-08-07T18:14:44.995Z,59.84
2022-08-07T18:18:44.740Z,60.53
2022-08-07T18:21:10.963Z,60.10
2022-08-07T18:23:43.238Z,60.35
2022-08-07T18:26:20.339Z,60.53
2022-08-07T18:29:05.654Z,60.86
2022-08-07T18:32:07.216Z,61.44
2022-08-07T18:35:00.877Z,61.60
2022-08-07T18:38:55.183Z,61.67
2022-08-07T18:40:59.801Z,62.04
2022-08-07T18:44:03.690Z,62.14
2022-08-07T18:47:00.487Z,62.16
2022-08-07T18:50:30.307Z,62.62
2022-08-07T18:53:06.089Z,63.85
2022-08-07T18:55:57.165Z,63.71
2022-08-07T18:59:04.979Z,63.95
2022-08-07T19:02:17.452Z,63.87
2022-08-07T19:04:57.455Z,64.33
2022-08-07T19:07:36.311Z,64.42
2022-08-07T19:10:22.709Z,64.37
2022-08-07T19:13:11.868Z,64.40
2022-08-07T19:17:01.153Z,64.81
2022-08-07T19:19:13.248Z,65.05
2022-08-07T19:22:05.176Z,66.03
2022-08-07T19:24:48.784Z,66.58
2022-08-07T19:28:58.621Z,66.77
2022-08-07T19:31:02.070Z,66.93
2022-08-07T19:33:08.229Z,67.31
2022-08-07T19:35:41.431Z,67.56
2022-08-07T19:38:17.145Z,67.86
2022-08-07T19:40:49.329Z,68.03
2022-08-07T19:43:48.680Z,68.13
2022-08-07T19:46:14.740Z,68.15
2022-08-07T19:48:53.800Z,68.21
2022-08-07T19:51:50.494Z,68.37
2022-08-07T19:54:32.177Z,68.37
2022-08-07T19:58:04.126Z,68.69
2022-08-07T19:59:54.212Z,68.84
2022-08-07T20:02:34.831Z,68.80
2022-08-07T20:05:12.480Z,68.83
2022-08-07T20:07:46.638Z,68.77
2022-08-07T20:10:38.366Z,69.16
2022-08-07T20:13:22.419Z,69.28
2022-08-07T20:15:50.108Z,69.45
2022-08-07T20:18:20.160Z,69.53
2022-08-07T20:20:47.418Z,70.21
2022-08-07T20:23:32.753Z,70.21
2022-08-07T20:26:10.279Z,70.42
2022-08-07T20:28:39.827Z,70.65
2022-08-07T20:31:21.377Z,70.86
2022-08-07T20:33:57.359Z,71.02
2022-08-07T20:36:27.266Z,71.22
2022-08-07T20:39:11.636Z,71.39
2022-08-07T20:41:48.727Z,71.54
2022-08-07T20:44:16.277Z,71.61
2022-08-07T20:46:46.178Z,71.52
2022-08-07T20:49:59.134Z,71.75
2022-08-07T20:52:02.329Z,72.07
2022-08-07T20:54:33.348Z,72.26
2022-08-07T20:57:04.584Z,72.57
2022-08-07T21:00:06.868Z,72.70
2022-08-07T21:02:54.061Z,73.04
2022-08-07T21:05:42.595Z,73.92
2022-08-07T21:08:28.754Z,74.44
2022-08-07T21:11:10.519Z,74.93
2022-08-07T21:13:43.720Z,74.94
2022-08-07T21:16:29.156Z,74.81
2022-08-07T21:18:59.736Z,74.88
2022-08-07T21:21:33.270Z,74.81
2022-08-07T21:24:26.377Z,74.87
2022-08-07T21:27:23.425Z,75.28
2022-08-07T21:30:04.102Z,75.36
2022-08-07T21:32:52.094Z,75.69
2022-08-07T21:35:34.969Z,75.45
2022-08-07T21:38:14.197Z,75.97
2022-08-07T21:40:47.060Z,76.20
2022-08-07T21:43:56.240Z,76.34
2022-08-07T21:46:36.609Z,76.20
2022-08-07T21:49:15.059Z,76.29
2022-08-07T21:51:57.656Z,76.33
2022-08-07T21:54:46.251Z,76.38
2022-08-07T21:57:39.407Z,76.46
2022-08-07T22:00:22.169Z,76.42
2022-08-07T22:02:59.434Z,76.57
2022-08-07T22:05:44.219Z,77.09
2022-08-07T22:08:18.414Z,77.17
2022-08-07T22:10:49.663Z,77.42
2022-08-07T22:13:17.412Z,77.15
2022-08-07T22:16:42.455Z,77.44
2022-08-07T22:19:01.088Z,77.57
2022-08-07T22:22:02.570Z,77.63
2022-08-07T22:24:32.849Z,77.68
2022-08-07T22:27:06.526Z,77.76
2022-08-07T22:29:48.083Z,78.02
2022-08-07T22:32:42.332Z,77.96
2022-08-07T22:35:11.519Z,77.86
2022-08-07T22:38:07.252Z,78.10
2022-08-07T22:40:56.777Z,78.26
2022-08-07T22:43:33.929Z,78.09
2022-08-07T22:46:21.604Z,78.54
2022-08-07T22:49:07.652Z,78.62
2022-08-07T22:51:51.962Z,78.61
2022-08-07T22:54:37.433Z,78.71
2022-08-07T22:57:51.108Z,79.10
2022-08-07T23:00:28.390Z,78.93
2022-08-07T23:03:14.210Z,78.89
2022-08-07T23:06:15.257Z,79.12
2022-08-07T23:08:58.599Z,79.23
2022-08-07T23:12:10.798Z,79.96
2022-08-07T23:16:04.605Z,79.62
2022-08-07T23:18:01.300Z,79.58
2022-08-07T23:20:55.714Z,79.71
2022-08-07T23:24:08.996Z,79.79
2022-08-07T23:26:57.250Z,79.72
2022-08-07T23:30:35.700Z,79.67
2022-08-07T23:34:20.636Z,79.78
2022-08-07T23:35:54.605Z,80.21
2022-08-07T23:38:43.023Z,80.12
2022-08-07T23:41:47.853Z,80.09
2022-08-07T23:44:52.344Z,80.16
2022-08-07T23:47:29.737Z,80.28
2022-08-07T23:50:26.686Z,80.29
2022-08-07T23:53:08.364Z,80.32
2022-08-07T23:55:55.334Z,80.64
2022-08-07T23:58:37.700Z,80.62
